Strona główna
METAR-TAF:

METAR-TAF

Lotnisko :

Port lotniczy Gran Canaria

Gran Canaria, Hiszpania

Szerokość geograficzna: 27-56N, Długość geograficzna: 015-23W, wysokość: 23 m

Aktualna obserwacja pogody

Raport powstał 34 minut temu, godzina 15:30 UTC
Wiatr 27 kt od północno-północny wschód
Temperatura 27°C
Wilgotność 66%
Ciśnienie 1016 hPa
Widzialność 10 km lub więcej
Mało chmury na wysokości 3000 ft

METAR: GCLP 231530Z 02027KT 9999 FEW030 27/20 Q1016 NOSIG

czas: 17:04 (16:04 UTC)

Prognoza

Raport powstał 2 godziny i 4 minut temu, godzina 14:00 UTC
Prognoza ważna od 23 godzina 15 UTC do 24 godzina 15 UTC
Wiatr 24 kt od północno-północny wschód
Widzialność 10 km lub więcej
Mało chmury na wysokości 2500 ft

TAF: GCLP 231400Z 2315/2415 02024KT 9999 FEW025 TX31/2415Z TN26/2405Z

Obserwacja i prognoza pogody dla ponad 4000 lotnisk (raport METAR i TAF).

Dostępne stacje oznaczono żółtymi i czerwonymi punktami na mapie.

Najedź kursorem aby zobaczyć nazwę stacji.

Kliknij aby zobaczyć obserwacje i prognozy pogody.

Aby zmienić mapę: kliknij na zielony przycisk z czarnym krzyżykiem, aby powiększyć; na zielony przycisk z myślnikiem, aby pomniejszyć; na zielone strzałki, aby przejść do map sąsiednich.


METAR-TAF: